createdAt,value
2018-05-04T00:02:06.602Z,18.30
2018-05-04T00:04:34.712Z,18.30
2018-05-04T00:07:02.827Z,18.30
2018-05-04T00:09:30.943Z,18.30
2018-05-04T00:11:59.065Z,18.30
2018-05-04T00:14:27.181Z,18.30
2018-05-04T00:16:55.311Z,18.30
2018-05-04T00:19:24.189Z,18.30
2018-05-04T00:21:52.347Z,18.30
2018-05-04T00:24:20.453Z,18.30
2018-05-04T00:26:49.326Z,18.20
2018-05-04T00:29:17.436Z,18.20
2018-05-04T00:31:46.315Z,18.20
2018-05-04T00:34:15.199Z,18.20
2018-05-04T00:36:43.311Z,18.20
2018-05-04T00:39:11.432Z,18.20
2018-05-04T00:41:39.540Z,18.10
2018-05-04T00:44:07.680Z,18.10
2018-05-04T00:46:35.829Z,18.10
2018-05-04T00:49:03.946Z,18.10
2018-05-04T00:54:23.461Z,18.10
2018-05-04T00:56:52.361Z,18.10
2018-05-04T00:59:21.245Z,18.10
2018-05-04T01:01:49.384Z,18.10
2018-05-04T01:04:17.496Z,18.00
2018-05-04T01:06:45.617Z,18.10
2018-05-04T01:09:13.750Z,18.00
2018-05-04T01:11:41.893Z,18.00
2018-05-04T01:14:09.999Z,18.00
2018-05-04T01:16:38.107Z,18.00
2018-05-04T01:19:06.997Z,17.90
2018-05-04T01:21:35.880Z,17.90
2018-05-04T01:24:04.784Z,17.90
2018-05-04T01:26:33.660Z,17.80
2018-05-04T01:29:01.790Z,17.80
2018-05-04T01:31:29.908Z,17.80
2018-05-04T01:33:58.038Z,17.80
2018-05-04T01:36:26.285Z,17.70
2018-05-04T01:38:55.178Z,17.80
2018-05-04T01:41:24.054Z,17.70
2018-05-04T01:43:52.162Z,17.70
2018-05-04T01:46:21.045Z,17.70
2018-05-04T01:48:49.935Z,17.70
2018-05-04T01:51:18.833Z,17.60
2018-05-04T01:53:47.701Z,17.50
2018-05-04T01:56:15.818Z,17.50
2018-05-04T01:58:44.690Z,17.50
2018-05-04T02:01:12.810Z,17.40
2018-05-04T02:03:40.915Z,17.40
2018-05-04T02:06:09.057Z,17.40
2018-05-04T02:08:37.168Z,17.40
2018-05-04T02:11:06.057Z,17.40
2018-05-04T02:13:34.190Z,17.40
2018-05-04T02:16:03.073Z,17.40
2018-05-04T02:18:31.974Z,17.30
2018-05-04T02:21:00.853Z,17.30
2018-05-04T02:23:28.994Z,17.40
2018-05-04T02:25:57.109Z,17.30
2018-05-04T02:28:25.216Z,17.30
2018-05-04T02:30:53.335Z,17.30
2018-05-04T02:33:21.436Z,17.20
2018-05-04T02:35:49.562Z,17.20
2018-05-04T02:38:17.673Z,17.20
2018-05-04T02:40:45.807Z,17.20
2018-05-04T02:43:14.283Z,17.10
2018-05-04T02:45:42.392Z,17.10
2018-05-04T02:48:10.552Z,17.10
2018-05-04T02:50:38.671Z,17.10
2018-05-04T02:53:06.790Z,17.10
2018-05-04T02:55:35.665Z,17.10
2018-05-04T02:58:03.786Z,17.10
2018-05-04T03:00:31.901Z,17.10
2018-05-04T03:03:00.034Z,17.10
2018-05-04T03:05:28.142Z,17.10
2018-05-04T03:07:56.257Z,17.20
2018-05-04T03:10:25.154Z,17.20
2018-05-04T03:12:54.147Z,17.20
2018-05-04T03:15:25.086Z,17.20
2018-05-04T03:17:53.191Z,17.20
2018-05-04T03:20:21.321Z,17.30
2018-05-04T03:22:49.426Z,17.30
2018-05-04T03:25:18.327Z,17.30
2018-05-04T03:27:47.208Z,17.30
2018-05-04T03:30:16.087Z,17.30
2018-05-04T03:32:44.199Z,17.30
2018-05-04T03:35:12.309Z,17.30
2018-05-04T03:37:40.433Z,17.30
2018-05-04T03:40:09.316Z,17.30
2018-05-04T03:42:37.442Z,17.30
2018-05-04T03:45:05.593Z,17.30
2018-05-04T03:47:34.506Z,17.30
2018-05-04T03:50:02.620Z,17.30
2018-05-04T03:52:31.496Z,17.30
2018-05-04T03:54:59.616Z,17.30
2018-05-04T03:57:45.347Z,17.30
2018-05-04T04:00:31.392Z,17.30
2018-05-04T04:03:18.421Z,17.20
2018-05-04T04:05:46.539Z,17.20
2018-05-04T04:08:14.668Z,17.20
2018-05-04T04:10:43.540Z,17.20
2018-05-04T04:13:11.650Z,17.20
2018-05-04T04:15:39.777Z,17.30
2018-05-04T04:18:07.921Z,17.30
2018-05-04T04:20:36.059Z,17.30
2018-05-04T04:23:04.957Z,17.30
2018-05-04T04:25:33.880Z,17.30
2018-05-04T04:28:01.976Z,17.30
2018-05-04T04:30:30.101Z,17.30
2018-05-04T04:32:58.981Z,17.30
2018-05-04T04:35:27.112Z,17.30
2018-05-04T04:37:55.224Z,17.30
2018-05-04T04:40:23.335Z,17.30
2018-05-04T04:42:52.222Z,17.30
2018-05-04T04:45:21.101Z,17.30
2018-05-04T04:47:49.213Z,17.30
2018-05-04T04:50:18.090Z,17.30
2018-05-04T04:52:46.973Z,17.30
2018-05-04T04:55:15.083Z,17.30
2018-05-04T04:57:43.219Z,17.30
2018-05-04T05:00:11.350Z,17.20
2018-05-04T05:02:39.458Z,17.20
2018-05-04T05:05:07.584Z,17.20
2018-05-04T05:07:36.484Z,17.20
2018-05-04T05:10:04.606Z,17.20
2018-05-04T05:12:32.742Z,17.20
2018-05-04T05:15:00.877Z,17.20
2018-05-04T05:17:29.002Z,17.10
2018-05-04T05:19:57.137Z,17.10
2018-05-04T05:22:25.243Z,17.10
2018-05-04T05:24:54.141Z,17.10
2018-05-04T05:27:23.025Z,17.10
2018-05-04T05:29:51.906Z,17.10
2018-05-04T05:32:20.026Z,17.10
2018-05-04T05:34:48.148Z,17.00
2018-05-04T05:37:16.257Z,17.00
2018-05-04T05:39:45.134Z,17.00
2018-05-04T05:42:13.269Z,17.00
2018-05-04T05:44:41.386Z,16.90
2018-05-04T05:47:09.529Z,17.00
2018-05-04T05:49:37.636Z,16.90
2018-05-04T05:52:05.734Z,16.90
2018-05-04T05:54:34.872Z,16.90
2018-05-04T05:57:02.991Z,16.90
2018-05-04T05:59:31.116Z,16.90
2018-05-04T06:01:59.230Z,16.90
2018-05-04T06:04:27.347Z,16.80
2018-05-04T06:06:56.218Z,16.80
2018-05-04T06:09:24.443Z,16.90
2018-05-04T06:11:52.489Z,16.80
2018-05-04T06:14:21.385Z,16.90
2018-05-04T06:16:50.252Z,16.80
2018-05-04T06:19:18.489Z,16.80
2018-05-04T06:21:46.611Z,16.80
2018-05-04T06:24:14.728Z,16.70
2018-05-04T06:26:42.848Z,16.70
2018-05-04T06:29:10.952Z,16.80
2018-05-04T06:31:39.084Z,16.80
2018-05-04T06:34:07.204Z,16.80
2018-05-04T06:36:35.334Z,16.80
2018-05-04T06:39:03.447Z,16.80
2018-05-04T06:41:31.558Z,16.80
2018-05-04T06:44:00.446Z,16.80
2018-05-04T06:46:29.320Z,16.70
2018-05-04T06:48:57.441Z,16.80
2018-05-04T06:51:25.700Z,16.80
2018-05-04T06:53:54.590Z,16.80
2018-05-04T06:56:23.463Z,16.90
2018-05-04T06:58:51.596Z,16.90
2018-05-04T07:01:19.721Z,16.80
2018-05-04T07:03:47.827Z,16.90
2018-05-04T07:06:16.723Z,16.90
2018-05-04T07:08:45.602Z,16.80
2018-05-04T07:11:14.485Z,16.80
2018-05-04T07:13:42.605Z,16.80
2018-05-04T07:16:10.732Z,16.80
2018-05-04T07:18:38.851Z,16.80
2018-05-04T07:21:06.963Z,16.90
2018-05-04T07:23:35.090Z,16.90
2018-05-04T07:26:03.967Z,16.90
2018-05-04T07:28:32.107Z,16.90
2018-05-04T07:31:00.214Z,16.80
2018-05-04T07:33:28.335Z,16.90
2018-05-04T07:35:56.471Z,16.90
2018-05-04T07:38:24.651Z,16.90
2018-05-04T07:40:52.766Z,17.00
2018-05-04T07:43:20.880Z,17.00
2018-05-04T07:45:49.007Z,17.00
2018-05-04T07:48:17.903Z,17.00
2018-05-04T07:50:46.780Z,17.00
2018-05-04T07:53:14.998Z,17.00
2018-05-04T07:55:43.109Z,17.00
2018-05-04T07:58:11.243Z,17.00
2018-05-04T08:00:39.359Z,17.00
2018-05-04T08:03:07.484Z,16.90
2018-05-04T08:05:36.361Z,16.80
2018-05-04T08:08:04.494Z,16.90
2018-05-04T08:10:32.593Z,16.80
2018-05-04T08:13:00.721Z,16.90
2018-05-04T08:15:28.832Z,16.90
2018-05-04T08:17:56.947Z,16.90
2018-05-04T08:20:25.052Z,17.00
2018-05-04T08:22:53.203Z,17.00
2018-05-04T08:25:22.093Z,17.00
2018-05-04T08:27:50.198Z,16.90
2018-05-04T08:30:19.108Z,17.00
2018-05-04T08:32:47.222Z,17.00
2018-05-04T08:35:15.410Z,17.00
2018-05-04T08:37:43.473Z,17.00
2018-05-04T08:40:11.592Z,17.10
2018-05-04T08:42:40.478Z,17.10
2018-05-04T08:45:08.598Z,17.20
2018-05-04T08:47:36.720Z,17.10
2018-05-04T08:50:04.836Z,17.20
2018-05-04T08:52:32.962Z,17.20
2018-05-04T08:55:01.080Z,17.20
2018-05-04T08:57:30.061Z,17.30
2018-05-04T08:59:58.098Z,17.20
2018-05-04T09:02:26.200Z,17.30
2018-05-04T09:04:54.325Z,17.40
2018-05-04T09:07:22.443Z,17.50
2018-05-04T09:09:50.560Z,17.60
2018-05-04T09:12:18.680Z,17.60
2018-05-04T09:14:46.783Z,17.60
2018-05-04T09:17:14.917Z,17.60
2018-05-04T09:19:43.017Z,17.60
2018-05-04T09:22:11.914Z,17.70
2018-05-04T09:24:40.017Z,17.70
2018-05-04T09:27:08.236Z,17.80
2018-05-04T09:29:36.328Z,17.80
2018-05-04T09:32:04.446Z,17.80
2018-05-04T09:34:32.573Z,17.90
2018-05-04T09:37:00.675Z,17.90
2018-05-04T09:39:28.800Z,18.00
2018-05-04T09:41:57.685Z,18.10
2018-05-04T09:44:26.578Z,18.10
2018-05-04T09:46:55.463Z,18.10
2018-05-04T09:49:23.597Z,18.20
2018-05-04T09:51:51.728Z,18.20
2018-05-04T09:54:20.612Z,18.20
2018-05-04T09:56:48.739Z,18.30
2018-05-04T09:59:16.848Z,18.30
2018-05-04T10:01:44.972Z,18.40
2018-05-04T10:04:13.941Z,18.40
2018-05-04T10:06:42.045Z,18.40
2018-05-04T10:09:10.958Z,18.40
2018-05-04T10:11:39.151Z,18.40
2018-05-04T10:14:07.274Z,18.30
2018-05-04T10:16:35.424Z,18.30
2018-05-04T10:21:28.817Z,18.40
2018-05-04T10:23:56.918Z,18.40
2018-05-04T10:26:25.042Z,18.40
2018-05-04T10:28:53.154Z,18.40
2018-05-04T10:31:21.300Z,18.40
2018-05-04T10:33:49.428Z,18.50
2018-05-04T10:36:18.115Z,18.40
2018-05-04T10:38:46.328Z,18.40
2018-05-04T10:41:14.374Z,18.40
2018-05-04T10:43:42.473Z,18.40
2018-05-04T10:46:11.344Z,18.50
2018-05-04T10:48:40.233Z,18.50
2018-05-04T10:51:08.354Z,18.50
2018-05-04T10:53:36.503Z,18.50
2018-05-04T10:56:05.378Z,18.60
2018-05-04T10:58:33.510Z,18.60
2018-05-04T11:01:01.613Z,18.60
2018-05-04T11:03:29.731Z,18.60
2018-05-04T11:05:58.605Z,18.60
2018-05-04T11:08:26.709Z,18.70
2018-05-04T11:10:55.595Z,18.70
2018-05-04T11:13:24.476Z,18.70
2018-05-04T11:15:52.600Z,18.80
2018-05-04T11:18:20.726Z,18.80
2018-05-04T11:20:48.854Z,18.80
2018-05-04T11:23:17.101Z,18.80
2018-05-04T11:25:46.985Z,18.80
2018-05-04T11:28:15.090Z,18.80
2018-05-04T11:30:43.225Z,18.90
2018-05-04T11:33:11.341Z,18.90
2018-05-04T11:35:39.453Z,18.90
2018-05-04T11:38:07.668Z,19.00
2018-05-04T11:40:35.773Z,19.00
2018-05-04T11:43:03.894Z,18.90
2018-05-04T11:45:32.915Z,19.00
2018-05-04T11:48:01.041Z,19.00
2018-05-04T11:50:29.925Z,19.00
2018-05-04T11:52:58.831Z,19.00
2018-05-04T11:55:26.995Z,19.10
2018-05-04T11:57:55.896Z,19.00
2018-05-04T12:00:25.757Z,19.00
2018-05-04T12:02:54.182Z,19.10
2018-05-04T12:05:22.310Z,19.10
2018-05-04T12:07:52.467Z,19.10
2018-05-04T12:10:20.616Z,19.10
2018-05-04T12:12:48.726Z,19.10
2018-05-04T12:15:16.862Z,19.20
2018-05-04T12:17:44.975Z,19.20
2018-05-04T12:20:13.111Z,19.20
2018-05-04T12:22:41.288Z,19.20
2018-05-04T12:25:09.362Z,19.20
2018-05-04T12:27:37.488Z,19.30
2018-05-04T12:30:05.601Z,19.30
2018-05-04T12:32:34.513Z,19.30
2018-05-04T12:35:02.626Z,19.30
2018-05-04T12:37:30.766Z,19.30
2018-05-04T12:39:58.886Z,19.30
2018-05-04T12:42:27.012Z,19.30
2018-05-04T12:44:57.089Z,19.30
2018-05-04T12:47:25.216Z,19.30
2018-05-04T12:49:54.109Z,19.40
2018-05-04T12:52:22.990Z,19.30
2018-05-04T12:54:51.939Z,19.30
2018-05-04T12:57:20.048Z,19.30
2018-05-04T12:59:48.189Z,19.30
2018-05-04T13:02:16.409Z,19.30
2018-05-04T13:04:45.330Z,19.40
2018-05-04T13:07:14.202Z,19.40
2018-05-04T13:09:42.340Z,19.50
2018-05-04T13:12:11.900Z,19.50
2018-05-04T13:14:41.740Z,19.50
2018-05-04T13:17:10.025Z,19.50
2018-05-04T13:19:39.941Z,19.60
2018-05-04T13:22:08.845Z,19.60
2018-05-04T13:24:36.973Z,19.60
2018-05-04T13:27:05.122Z,19.60
2018-05-04T13:29:34.031Z,19.60
2018-05-04T13:32:02.161Z,19.70
2018-05-04T13:34:30.419Z,19.70
2018-05-04T13:36:58.485Z,19.70
2018-05-04T13:39:27.400Z,19.70
2018-05-04T13:41:56.275Z,19.70
2018-05-04T13:44:24.407Z,19.70
2018-05-04T13:46:52.530Z,19.70
2018-05-04T13:49:21.424Z,19.80
2018-05-04T13:51:49.530Z,19.80
2018-05-04T13:54:17.671Z,19.80
2018-05-04T13:56:45.791Z,19.80
2018-05-04T13:59:13.893Z,19.90
2018-05-04T14:01:42.021Z,19.80
2018-05-04T14:04:10.915Z,19.80
2018-05-04T14:06:39.813Z,19.80
2018-05-04T14:09:08.717Z,19.80
2018-05-04T14:11:36.863Z,19.90
2018-05-04T14:14:04.993Z,19.90
2018-05-04T14:16:33.136Z,19.90
2018-05-04T14:19:02.015Z,19.90
2018-05-04T14:21:30.129Z,19.90
2018-05-04T14:23:58.257Z,19.90
2018-05-04T14:26:26.373Z,20.00
2018-05-04T14:28:55.257Z,20.00
2018-05-04T14:31:24.140Z,20.00
2018-05-04T14:33:52.263Z,20.00
2018-05-04T14:36:20.377Z,20.00
2018-05-04T14:38:48.518Z,20.00
2018-05-04T14:41:16.642Z,20.00
2018-05-04T14:43:44.810Z,20.00
2018-05-04T14:46:12.917Z,20.10
2018-05-04T14:48:41.789Z,20.00
2018-05-04T14:51:09.928Z,20.00
2018-05-04T14:53:38.046Z,20.10
2018-05-04T14:56:06.177Z,20.10
2018-05-04T14:58:34.334Z,20.10
2018-05-04T15:01:02.465Z,20.20
2018-05-04T15:03:30.597Z,20.20
2018-05-04T15:05:58.709Z,20.10
2018-05-04T15:08:26.825Z,20.10
2018-05-04T15:10:54.962Z,20.10
2018-05-04T15:13:23.081Z,20.20
2018-05-04T15:15:51.963Z,20.20
2018-05-04T15:20:43.144Z,20.30
2018-05-04T15:23:11.281Z,20.20
2018-05-04T15:25:39.409Z,20.20
2018-05-04T15:28:07.563Z,20.20
2018-05-04T15:30:36.472Z,20.20
2018-05-04T15:33:04.592Z,20.20
2018-05-04T15:35:32.716Z,20.30
2018-05-04T15:38:00.828Z,20.30
2018-05-04T15:40:28.972Z,20.30
2018-05-04T15:42:57.104Z,20.20
2018-05-04T15:45:26.729Z,20.30
2018-05-04T15:47:54.851Z,20.30
2018-05-04T15:50:28.531Z,20.30
2018-05-04T15:52:57.448Z,20.30
2018-05-04T15:55:25.585Z,20.30
2018-05-04T15:57:53.706Z,20.30
2018-05-04T16:00:21.823Z,20.30
2018-05-04T16:02:49.965Z,20.30
2018-05-04T16:05:18.083Z,20.20
2018-05-04T16:07:46.225Z,20.30
2018-05-04T16:10:14.350Z,20.20
2018-05-04T16:12:43.344Z,20.20
2018-05-04T16:15:12.984Z,20.30
2018-05-04T16:17:41.855Z,20.10
2018-05-04T16:20:09.982Z,20.30
2018-05-04T16:22:38.109Z,20.30
2018-05-04T16:25:06.225Z,20.30
2018-05-04T16:27:34.345Z,20.30
2018-05-04T16:30:02.481Z,20.30
2018-05-04T16:32:30.657Z,20.30
2018-05-04T16:34:59.527Z,20.30
2018-05-04T16:37:28.435Z,20.30
2018-05-04T16:39:56.552Z,20.30
2018-05-04T16:42:24.666Z,20.30
2018-05-04T16:44:52.863Z,20.30
2018-05-04T16:47:22.808Z,20.40
2018-05-04T16:49:50.925Z,20.30
2018-05-04T16:52:19.032Z,20.40
2018-05-04T16:54:47.922Z,20.30
2018-05-04T16:57:16.827Z,20.30
2018-05-04T16:59:45.712Z,20.30
2018-05-04T17:02:14.593Z,20.30
2018-05-04T17:04:43.528Z,20.30
2018-05-04T17:07:11.630Z,20.30
2018-05-04T17:09:39.736Z,20.30
2018-05-04T17:12:07.857Z,20.30
2018-05-04T17:14:35.998Z,20.30
2018-05-04T17:17:04.125Z,20.30
2018-05-04T17:19:32.245Z,20.30
2018-05-04T17:22:01.090Z,20.30
2018-05-04T17:24:29.189Z,20.30
2018-05-04T17:26:57.298Z,20.30
2018-05-04T17:29:25.474Z,20.30
2018-05-04T17:31:53.583Z,20.30
2018-05-04T17:34:21.714Z,20.30
2018-05-04T17:36:49.829Z,20.30
2018-05-04T17:39:18.720Z,20.30
2018-05-04T17:41:47.636Z,20.30
2018-05-04T17:44:15.774Z,20.30
2018-05-04T17:46:44.655Z,20.30
2018-05-04T17:49:12.763Z,20.30
2018-05-04T17:51:41.658Z,20.30
2018-05-04T17:54:10.556Z,20.30
2018-05-04T17:56:39.516Z,20.30
2018-05-04T17:59:07.634Z,20.20
2018-05-04T18:01:36.539Z,20.20
2018-05-04T18:04:04.683Z,20.20
2018-05-04T18:06:32.821Z,20.20
2018-05-04T18:09:00.944Z,20.20
2018-05-04T18:11:29.856Z,20.20
2018-05-04T18:13:58.737Z,20.20
2018-05-04T18:16:27.632Z,20.10
2018-05-04T18:18:56.543Z,20.10
2018-05-04T18:21:25.422Z,20.10
2018-05-04T18:23:54.333Z,20.10
2018-05-04T18:26:22.462Z,20.10
2018-05-04T18:28:50.595Z,20.20
2018-05-04T18:31:18.753Z,20.20
2018-05-04T18:33:47.659Z,20.10
2018-05-04T18:36:16.537Z,20.10
2018-05-04T18:38:45.467Z,20.10
2018-05-04T18:41:13.588Z,20.10
2018-05-04T18:43:41.703Z,20.10
2018-05-04T18:46:10.581Z,20.10
2018-05-04T18:48:38.689Z,20.10
2018-05-04T18:51:06.805Z,20.00
2018-05-04T18:53:34.904Z,20.00
2018-05-04T18:56:03.016Z,20.00
2018-05-04T18:58:31.130Z,20.00
2018-05-04T19:00:59.251Z,20.00
2018-05-04T19:03:28.132Z,20.00
2018-05-04T19:05:57.037Z,20.00
2018-05-04T19:08:25.929Z,20.00
2018-05-04T19:10:54.053Z,20.00
2018-05-04T19:13:22.178Z,20.00
2018-05-04T19:15:50.305Z,20.00
2018-05-04T19:18:18.442Z,20.00
2018-05-04T19:20:46.650Z,20.00
2018-05-04T19:23:14.793Z,20.00
2018-05-04T19:25:42.921Z,20.00
2018-05-04T19:28:11.055Z,20.00
2018-05-04T19:30:39.930Z,19.90
2018-05-04T19:33:08.050Z,19.90
2018-05-04T19:35:36.179Z,19.90
2018-05-04T19:38:04.294Z,19.80
2018-05-04T19:40:33.173Z,19.80
2018-05-04T19:43:02.072Z,19.70
2018-05-04T19:45:30.981Z,19.70
2018-05-04T19:47:59.863Z,19.70
2018-05-04T19:50:28.749Z,19.70
2018-05-04T19:52:56.873Z,19.70
2018-05-04T19:55:24.997Z,19.60
2018-05-04T19:57:53.118Z,19.60
2018-05-04T20:00:21.225Z,19.50
2018-05-04T20:02:49.372Z,19.50
2018-05-04T20:05:17.488Z,19.50
2018-05-04T20:07:46.378Z,19.50
2018-05-04T20:10:14.560Z,19.40
2018-05-04T20:12:43.389Z,19.40
2018-05-04T20:15:12.261Z,19.30
2018-05-04T20:17:40.395Z,19.30
2018-05-04T20:20:08.506Z,19.30
2018-05-04T20:22:36.634Z,19.20
2018-05-04T20:25:04.739Z,19.20
2018-05-04T20:27:33.078Z,19.20
2018-05-04T20:30:01.968Z,19.10
2018-05-04T20:32:30.849Z,19.10
2018-05-04T20:34:59.067Z,19.10
2018-05-04T20:37:27.174Z,19.00
2018-05-04T20:39:55.328Z,18.90
2018-05-04T20:42:23.442Z,19.00
2018-05-04T20:44:51.583Z,18.90
2018-05-04T20:47:19.690Z,18.90
2018-05-04T20:49:47.817Z,18.90
2018-05-04T20:52:16.709Z,18.80
2018-05-04T20:54:45.576Z,18.80
2018-05-04T20:57:13.703Z,18.70
2018-05-04T20:59:41.826Z,18.70
2018-05-04T21:02:09.944Z,18.70
2018-05-04T21:04:38.063Z,18.70
2018-05-04T21:07:06.177Z,18.60
2018-05-04T21:09:35.063Z,18.60
2018-05-04T21:12:03.194Z,18.60
2018-05-04T21:14:31.358Z,18.60
2018-05-04T21:16:59.487Z,18.50
2018-05-04T21:19:27.604Z,18.50
2018-05-04T21:21:55.717Z,18.50
2018-05-04T21:24:23.832Z,18.40
2018-05-04T21:26:52.719Z,18.40
2018-05-04T21:29:20.843Z,18.30
2018-05-04T21:31:48.946Z,18.30
2018-05-04T21:34:17.100Z,18.30
2018-05-04T21:36:45.213Z,18.20
2018-05-04T21:39:13.337Z,18.20
2018-05-04T21:41:41.461Z,18.20
2018-05-04T21:44:09.563Z,18.20
2018-05-04T21:46:37.715Z,18.20
2018-05-04T21:49:05.828Z,18.20
2018-05-04T21:51:34.714Z,18.10
2018-05-04T21:54:02.838Z,18.10
2018-05-04T21:56:30.979Z,18.10
2018-05-04T21:58:59.854Z,18.00
2018-05-04T22:01:28.758Z,18.00
2018-05-04T22:03:56.869Z,18.00
2018-05-04T22:06:25.024Z,18.00
2018-05-04T22:08:53.907Z,17.90
2018-05-04T22:11:22.026Z,17.90
2018-05-04T22:13:50.146Z,17.90
2018-05-04T22:16:18.255Z,17.90
2018-05-04T22:18:47.159Z,17.80
2018-05-04T22:21:15.276Z,17.80
2018-05-04T22:23:43.412Z,17.80
2018-05-04T22:26:12.293Z,17.80
2018-05-04T22:28:41.187Z,17.70
2018-05-04T22:31:10.057Z,17.70
2018-05-04T22:33:38.184Z,17.70
2018-05-04T22:36:06.293Z,17.70
2018-05-04T22:38:34.421Z,17.60
2018-05-04T22:41:03.306Z,17.60
2018-05-04T22:43:32.178Z,17.50
2018-05-04T22:46:00.302Z,17.50
2018-05-04T22:48:28.408Z,17.50
2018-05-04T22:50:56.531Z,17.50
2018-05-04T22:53:25.405Z,17.50
2018-05-04T22:55:53.582Z,17.40
2018-05-04T22:58:21.696Z,17.40
2018-05-04T23:00:50.573Z,17.40
2018-05-04T23:03:18.701Z,17.30
2018-05-04T23:05:46.809Z,17.30
2018-05-04T23:08:14.942Z,17.30
2018-05-04T23:10:43.046Z,17.20
2018-05-04T23:13:11.165Z,17.20
2018-05-04T23:15:40.055Z,17.10
2018-05-04T23:18:08.949Z,17.10
2018-05-04T23:20:37.842Z,17.10
2018-05-04T23:23:06.726Z,17.10
2018-05-04T23:25:34.849Z,17.10
2018-05-04T23:28:02.986Z,17.00
2018-05-04T23:30:31.121Z,17.00
2018-05-04T23:32:59.234Z,17.00
2018-05-04T23:35:27.362Z,17.00
2018-05-04T23:37:55.484Z,17.00
2018-05-04T23:40:23.605Z,16.90
2018-05-04T23:42:51.717Z,16.90
2018-05-04T23:45:19.860Z,16.90
2018-05-04T23:47:47.977Z,16.80
2018-05-04T23:50:16.140Z,16.80
2018-05-04T23:52:45.036Z,16.80
2018-05-04T23:55:13.157Z,16.70
2018-05-04T23:57:41.373Z,16.70
